Time;durP1;ratioP1;P1;durP2;ratioP2;P2;SDS_P1;SDS_P2;PMS_P1;PMS_P2;Temp;Humidity;BMP_temperature;BMP_pressure;BME280_temperature;BME280_humidity;BME280_pressure;Samples;Min_cycle;Max_cycle;Signal;HPM_P1;HPM_P2
2023/01/10 05:30:37;;;;;;;;;3.00;1.00;;;;;7.50;70.98;101711.78;5034402;28;45524;-84
2023/01/10 05:33:03;;;;;;;;;3.00;1.00;;;;;7.48;71.31;101707.41;4995482;28;45237;-83
2023/01/10 05:35:29;;;;;;;;;2.75;2.00;;;;;6.91;70.77;101605.28;4994708;28;45407;-81
2023/01/10 05:37:54;;;;;;;;;1.00;1.00;;;;;7.00;70.79;101626.44;4994980;28;45637;-81
2023/01/10 05:40:19;;;;;;;;;6.50;2.75;;;;;7.28;71.05;101667.75;4995383;28;45234;-83
2023/01/10 05:42:45;;;;;;;;;2.75;1.50;;;;;7.08;71.12;101638.75;4995514;28;45670;-83
2023/01/10 05:45:10;;;;;;;;;1.00;1.00;;;;;7.55;70.99;101712.59;4977192;28;46019;-84
2023/01/10 05:47:36;;;;;;;;;3.00;3.00;;;;;7.25;70.69;101658.91;4994460;28;45776;-82
2023/01/10 05:50:01;;;;;;;;;1.50;1.50;;;;;7.04;70.58;101617.50;5002239;28;45491;-82
2023/01/10 05:52:27;;;;;;;;;3.00;1.00;;;;;7.18;70.90;101640.34;5009298;28;45481;-84
2023/01/10 05:54:52;;;;;;;;;1.25;1.00;;;;;7.60;70.76;101697.38;4996703;28;45384;-83
2023/01/10 05:57:18;;;;;;;;;4.25;4.25;;;;;7.44;70.60;101674.56;4995937;28;46201;-83
2023/01/10 05:59:43;;;;;;;;;4.00;2.50;;;;;7.18;70.55;101632.34;4996341;28;45313;-84
2023/01/10 06:02:11;;;;;;;;;3.50;2.50;;;;;7.18;70.55;101640.34;4995674;28;45336;-82
2023/01/10 06:04:36;;;;;;;;;2.00;1.00;;;;;7.46;71.17;101679.88;4996951;28;45586;-82
2023/01/10 06:07:02;;;;;;;;;4.25;2.00;;;;;7.17;70.75;101619.91;5000422;28;46479;-83
2023/01/10 06:09:27;;;;;;;;;4.00;2.00;;;;;7.30;70.63;101646.38;4997117;28;45452;-83
2023/01/10 06:11:52;;;;;;;;;2.50;2.00;;;;;7.39;71.01;101659.56;4997623;28;45506;-78
2023/01/10 06:14:18;;;;;;;;;2.00;2.00;;;;;7.65;71.19;101699.09;4999109;28;45448;-83
2023/01/10 06:16:44;;;;;;;;;1.50;1.50;;;;;7.60;71.08;101700.03;4982646;28;46926;-80
2023/01/10 06:19:10;;;;;;;;;6.25;1.00;;;;;7.59;70.95;101692.06;5000150;28;45603;-84
2023/01/10 06:21:35;;;;;;;;;2.25;2.00;;;;;7.33;70.69;101647.19;4997947;28;45453;-81
2023/01/10 06:24:01;;;;;;;;;2.25;2.25;;;;;7.57;70.56;101686.75;4997986;28;45545;-83
2023/01/10 06:26:26;;;;;;;;;2.50;1.50;;;;;7.60;71.25;101697.38;4997632;28;45388;-80
2023/01/10 06:28:51;;;;;;;;;3.00;1.25;;;;;7.32;71.21;101655.22;4997722;28;45319;-80
2023/01/10 06:31:17;;;;;;;;;2.00;2.00;;;;;7.40;71.01;101664.84;5003858;28;45469;-81
2023/01/10 06:33:42;;;;;;;;;2.00;2.00;;;;;7.56;71.07;101698.34;5018230;28;45380;-78
2023/01/10 06:36:08;;;;;;;;;3.25;2.00;;;;;7.18;71.32;101656.34;5010701;28;45491;-78
2023/01/10 06:38:36;;;;;;;;;6.00;3.00;;;;;7.11;71.12;101636.03;5017280;28;45393;-83
2023/01/10 06:41:11;;;;;;;;;2.00;2.00;;;;;7.06;71.28;101632.53;5017830;28;45518;-80
2023/01/10 06:43:44;;;;;;;;;3.00;3.00;;;;;7.29;71.20;101680.16;5014214;28;45600;-78
2023/01/10 06:46:11;;;;;;;;;2.00;2.00;;;;;7.40;71.14;101707.50;5006087;28;45399;-76
2023/01/10 06:48:37;;;;;;;;;3.75;2.75;;;;;7.35;71.82;101701.38;5019881;28;45309;-76
2023/01/10 06:51:04;;;;;;;;;3.75;2.75;;;;;7.36;71.47;101688.94;5020694;28;45478;-78
2023/01/10 06:53:29;;;;;;;;;4.25;4.00;;;;;7.34;72.27;101683.63;5000750;28;46413;-81
2023/01/10 06:55:56;;;;;;;;;2.75;2.75;;;;;7.46;71.95;101702.09;5016214;28;45813;-82
2023/01/10 06:58:22;;;;;;;;;3.75;2.50;;;;;7.47;71.53;101684.31;4999626;28;45459;-81
2023/01/10 07:00:49;;;;;;;;;6.75;3.00;;;;;7.67;71.44;101699.94;5016615;28;45429;-81
2023/01/10 07:03:15;;;;;;;;;3.00;3.00;;;;;7.73;71.02;101700.72;5015950;28;45501;-82
2023/01/10 07:05:40;;;;;;;;;6.00;4.50;;;;;7.74;70.80;101705.13;5016801;28;46369;-83
2023/01/10 07:08:05;;;;;;;;;2.00;1.50;;;;;7.82;70.43;101719.22;5016605;28;45481;-82
2023/01/10 07:10:31;;;;;;;;;3.75;1.25;;;;;7.20;70.47;101625.19;5016858;28;45616;-83
2023/01/10 07:12:57;;;;;;;;;1.75;1.75;;;;;7.59;70.98;101692.06;5019591;28;45514;-86
2023/01/10 07:15:23;;;;;;;;;1.25;1.25;;;;;7.74;71.16;101715.78;5016632;28;45312;-77
2023/01/10 07:17:49;;;;;;;;;3.25;2.00;;;;;7.60;71.50;101696.50;4998325;28;45602;-82
2023/01/10 07:20:15;;;;;;;;;4.25;2.00;;;;;7.53;71.06;101677.06;4998779;28;45325;-77
2023/01/10 07:22:40;;;;;;;;;2.25;2.00;;;;;7.73;71.30;101710.50;5016074;28;46527;-80
2023/01/10 07:25:06;;;;;;;;;4.00;3.75;;;;;7.31;70.89;101627.69;5016579;28;46140;-78
2023/01/10 07:27:32;;;;;;;;;3.00;3.00;;;;;7.74;70.80;101693.59;5016260;28;45357;-81
2023/01/10 07:30:00;;;;;;;;;6.25;3.50;;;;;7.33;70.54;101627.63;4998549;28;45384;-83
2023/01/10 07:32:26;;;;;;;;;2.50;2.00;;;;;7.75;70.77;101698.00;5016023;28;45323;-80
2023/01/10 07:34:51;;;;;;;;;2.00;2.00;;;;;7.74;70.80;101693.59;5016061;28;45313;-80
2023/01/10 07:37:16;;;;;;;;;7.00;6.00;;;;;7.83;70.70;101702.28;5016057;28;45493;-81
2023/01/10 07:39:42;;;;;;;;;3.00;3.00;;;;;7.49;70.63;101651.31;5016534;28;45810;-81
2023/01/10 07:42:08;;;;;;;;;7.75;3.00;;;;;7.39;70.72;101638.22;5016201;28;45368;-79
2023/01/10 07:44:34;;;;;;;;;3.00;3.00;;;;;7.61;71.22;101679.56;5013265;28;46091;-76
2023/01/10 07:46:59;;;;;;;;;5.50;2.75;;;;;7.48;71.48;101662.94;5016030;28;45313;-80
2023/01/10 07:49:24;;;;;;;;;2.00;2.00;;;;;7.42;71.37;101648.81;4997844;28;45456;-80
2023/01/10 07:51:50;;;;;;;;;3.50;2.25;;;;;7.62;71.64;101676.00;5015657;28;45507;-80
2023/01/10 07:54:15;;;;;;;;;4.25;3.00;;;;;7.61;72.10;101684.91;5015596;28;46063;-79
2023/01/10 07:56:40;;;;;;;;;7.25;2.00;;;;;7.47;71.87;101671.84;5015569;28;45324;-78
2023/01/10 07:59:06;;;;;;;;;3.75;3.75;;;;;7.56;72.31;101698.34;5016249;28;45475;-78
2023/01/10 08:01:31;;;;;;;;;3.50;3.00;;;;;7.34;72.12;101656.06;5015581;28;45516;-78
2023/01/10 08:03:57;;;;;;;;;3.00;2.25;;;;;7.54;72.51;101685.94;5015814;28;46121;-77
2023/01/10 08:06:23;;;;;;;;;4.00;4.00;;;;;7.61;72.44;101690.25;5015839;28;45333;-79
2023/01/10 08:08:48;;;;;;;;;3.00;3.00;;;;;7.49;72.48;101679.78;5016204;28;45534;-79
2023/01/10 08:11:13;;;;;;;;;7.00;3.00;;;;;7.63;71.88;101684.91;5016059;28;45502;-78
2023/01/10 08:13:39;;;;;;;;;5.50;3.00;;;;;7.54;72.67;101686.81;5016311;28;45964;-73
2023/01/10 08:16:06;;;;;;;;;2.00;1.00;;;;;7.52;72.55;101690.41;5006895;28;45389;-80
2023/01/10 08:18:32;;;;;;;;;4.00;3.00;;;;;7.46;72.85;101693.22;5015656;28;45217;-78
2023/01/10 08:20:58;;;;;;;;;3.00;3.00;;;;;7.48;72.89;101700.28;5015609;28;45234;-80
2023/01/10 08:23:23;;;;;;;;;8.00;3.00;;;;;7.19;72.92;101649.22;5015260;28;46490;-78
2023/01/10 08:25:50;;;;;;;;;6.75;5.25;;;;;7.56;72.73;101706.38;5015663;28;45318;-77
2023/01/10 08:28:16;;;;;;;;;4.25;4.25;;;;;7.53;73.06;101706.41;5015652;28;45573;-79
2023/01/10 08:30:41;;;;;;;;;7.25;6.00;;;;;7.57;72.58;101708.09;5015515;28;45360;-79
2023/01/10 08:33:09;;;;;;;;;3.00;2.00;;;;;7.62;72.83;101702.69;5014270;28;48426;-79
2023/01/10 08:35:42;;;;;;;;;3.00;3.00;;;;;7.66;72.57;101700.81;5014953;28;45337;-78
2023/01/10 08:38:08;;;;;;;;;4.50;3.00;;;;;7.49;72.32;101656.66;5016290;28;45511;-78
2023/01/10 08:40:34;;;;;;;;;4.25;4.25;;;;;7.75;72.48;101687.31;5015375;28;45570;-77
2023/01/10 08:43:03;;;;;;;;;7.00;5.00;;;;;7.80;71.97;101685.44;5015743;28;45364;-75
2023/01/10 08:45:29;;;;;;;;;4.25;4.25;;;;;7.78;71.98;101674.81;5015969;28;45229;-77
2023/01/10 08:47:54;;;;;;;;;6.00;3.00;;;;;7.90;71.85;101687.03;5018684;28;45349;-81
2023/01/10 08:50:20;;;;;;;;;1.50;1.50;;;;;7.85;72.27;101687.13;5017026;28;45639;-77
2023/01/10 08:52:45;;;;;;;;;4.50;4.00;;;;;7.90;72.28;101697.72;5017721;28;45898;-78
2023/01/10 08:55:11;;;;;;;;;7.00;4.00;;;;;7.78;72.29;101676.59;5016904;28;45432;-78
2023/01/10 08:57:36;;;;;;;;;7.75;4.00;;;;;7.64;72.83;101658.19;5015292;28;45364;-77
2023/01/10 09:00:03;;;;;;;;;8.00;7.00;;;;;7.78;72.80;101687.25;5014734;28;45579;-78
2023/01/10 09:02:29;;;;;;;;;5.25;3.00;;;;;7.75;73.05;101687.31;5014765;28;45471;-80
2023/01/10 09:04:54;;;;;;;;;4.00;4.00;;;;;7.89;73.05;101704.84;5014714;28;45534;-81
2023/01/10 09:07:19;;;;;;;;;5.75;3.00;;;;;7.93;73.37;101697.63;5014892;28;45301;-78
2023/01/10 09:09:45;;;;;;;;;8.00;4.25;;;;;7.98;73.62;101693.09;5014654;28;45622;-78
2023/01/10 09:14:54;;;;;;;;;7.25;6.00;;;;;7.92;73.26;101666.50;5014739;28;45548;-80
2023/01/10 09:17:20;;;;;;;;;5.25;3.75;;;;;8.11;73.60;101689.25;5014941;28;45600;-78
2023/01/10 09:19:45;;;;;;;;;10.50;4.25;;;;;8.10;73.50;101705.31;5014605;28;45332;-78
2023/01/10 09:22:11;;;;;;;;;11.75;5.75;;;;;8.08;73.78;101691.13;5012642;28;47915;-79
2023/01/10 09:24:38;;;;;;;;;6.00;5.00;;;;;8.11;73.79;101688.38;5013378;28;45544;-79
2023/01/10 09:27:03;;;;;;;;;6.75;2.00;;;;;8.14;73.64;101685.66;5014879;28;45424;-78
2023/01/10 09:29:28;;;;;;;;;3.25;3.25;;;;;8.12;73.96;101687.47;5013026;28;46158;-79
2023/01/10 09:31:54;;;;;;;;;3.25;3.25;;;;;7.94;74.56;101652.22;5014296;28;45252;-79
2023/01/10 09:34:20;;;;;;;;;4.25;3.00;;;;;7.90;74.61;101650.53;5014251;28;45353;-79
2023/01/10 09:36:46;;;;;;;;;3.00;3.00;;;;;7.86;74.15;101635.47;5007415;28;45402;-78
2023/01/10 09:39:12;;;;;;;;;6.25;4.00;;;;;8.07;74.21;101671.56;5013807;28;45490;-79
2023/01/10 09:42:11;;;;;;;;;6.50;6.25;;;;;8.06;75.12;101674.25;5014464;28;45712;-78
2023/01/10 09:45:01;;;;;;;;;3.75;2.25;;;;;8.07;75.60;101670.66;5013995;28;45381;-79
2023/01/10 09:47:37;;;;;;;;;1.00;1.00;;;;;8.10;75.81;101670.59;5014720;28;45486;-79
2023/01/10 09:50:14;;;;;;;;;8.50;4.00;;;;;8.15;75.98;101660.72;5009584;28;47587;-78
2023/01/10 09:52:46;;;;;;;;;4.25;2.25;;;;;8.16;75.72;101654.47;5005673;28;46396;-78
2023/01/10 09:55:24;;;;;;;;;7.00;4.50;;;;;8.17;75.57;101658.84;5017495;28;45514;-78
2023/01/10 09:57:53;;;;;;;;;11.75;5.75;;;;;8.10;76.34;101651.91;5017901;28;45385;-79
2023/01/10 10:00:23;;;;;;;;;4.50;4.50;;;;;8.10;76.35;101666.13;4999573;28;45278;-78
2023/01/10 10:02:52;;;;;;;;;6.00;6.00;;;;;7.96;76.58;101661.09;5017338;28;45786;-78
2023/01/10 10:05:22;;;;;;;;;6.00;3.25;;;;;7.97;76.78;101662.84;5017011;28;45655;-78
2023/01/10 10:07:53;;;;;;;;;9.50;6.00;;;;;8.01;76.32;101665.44;5017474;28;45368;-77
2023/01/10 10:10:25;;;;;;;;;4.25;4.25;;;;;7.86;77.05;101634.59;5017477;28;45346;-79
2023/01/10 10:13:24;;;;;;;;;3.25;3.25;;;;;7.91;77.43;101667.44;5017388;28;45376;-79
2023/01/10 10:15:52;;;;;;;;;7.75;5.50;;;;;7.89;78.05;101674.59;5017496;28;45245;-78
2023/01/10 10:18:32;;;;;;;;;4.25;4.25;;;;;7.90;77.82;101663.88;5017253;28;45407;-77
2023/01/10 10:21:12;;;;;;;;;7.50;5.75;;;;;7.94;78.00;101665.56;5017281;28;45364;-78
2023/01/10 10:24:04;;;;;;;;;6.00;6.00;;;;;7.85;78.44;101662.19;5017038;28;45614;-77
2023/01/10 10:26:38;;;;;;;;;4.25;4.25;;;;;7.80;78.74;101638.28;5016060;28;45409;-78
2023/01/10 10:29:24;;;;;;;;;3.50;2.75;;;;;7.85;78.37;101640.84;5017409;28;45400;-77
2023/01/10 10:32:03;;;;;;;;;6.00;6.00;;;;;7.94;79.03;101638.00;5017150;28;45292;-78
2023/01/10 10:34:36;;;;;;;;;9.00;7.25;;;;;7.97;78.55;101627.25;5016995;28;45302;-79
2023/01/10 10:37:10;;;;;;;;;8.50;7.25;;;;;8.03;78.85;101618.22;5009805;28;45393;-78
2023/01/10 10:39:48;;;;;;;;;9.25;7.00;;;;;8.06;78.53;101615.50;5016643;28;45424;-78
2023/01/10 10:42:17;;;;;;;;;10.75;9.25;;;;;8.14;78.70;101609.06;5017553;28;45401;-77
2023/01/10 10:44:50;;;;;;;;;4.00;4.00;;;;;8.14;78.53;101578.81;5017201;28;45446;-79
2023/01/10 10:47:19;;;;;;;;;8.00;6.75;;;;;8.20;77.88;101587.56;5018296;28;45336;-79
2023/01/10 10:50:14;;;;;;;;;9.50;7.50;;;;;8.29;78.32;101595.38;5015225;28;45437;-77
2023/01/10 10:52:42;;;;;;;;;8.00;5.25;;;;;8.04;77.69;101548.78;5008131;28;45467;-79
2023/01/10 10:55:17;;;;;;;;;6.25;5.00;;;;;8.30;78.28;101590.91;5002894;28;47088;-79
2023/01/10 10:57:45;;;;;;;;;6.00;6.00;;;;;8.25;77.64;101576.78;5018926;28;45416;-77
2023/01/10 11:00:16;;;;;;;;;7.50;7.50;;;;;8.29;77.52;101575.78;5017019;28;45298;-78
2023/01/10 11:02:50;;;;;;;;;2.00;1.50;;;;;8.22;78.01;101575.06;5016725;28;45345;-78
2023/01/10 11:05:22;;;;;;;;;7.50;6.00;;;;;8.21;78.37;101564.41;5016356;28;45313;-79
2023/01/10 11:07:49;;;;;;;;;8.25;7.50;;;;;8.32;78.14;101570.44;5016566;28;45396;-78
2023/01/10 11:12:49;;;;;;;;;5.75;5.00;;;;;8.31;78.29;101552.63;5016517;28;45446;-79
2023/01/10 11:15:36;;;;;;;;;4.25;4.25;;;;;8.35;78.14;101556.97;5016702;28;45386;-77
2023/01/10 11:18:10;;;;;;;;;7.25;6.00;;;;;8.12;77.61;101496.06;5016361;28;45321;-78
2023/01/10 11:20:36;;;;;;;;;5.00;5.00;;;;;8.25;78.07;101512.69;5016595;28;45386;-78
2023/01/10 11:23:03;;;;;;;;;3.00;3.00;;;;;8.26;78.72;101525.09;5015734;28;45539;-78
2023/01/10 11:25:28;;;;;;;;;4.00;4.00;;;;;8.20;78.99;101525.25;5016473;28;46171;-76
2023/01/10 11:28:00;;;;;;;;;7.25;7.00;;;;;8.13;79.86;101526.31;4998149;28;45643;-77
2023/01/10 11:30:31;;;;;;;;;4.00;4.00;;;;;7.97;80.06;101483.06;5016417;28;45216;-79
2023/01/10 11:33:01;;;;;;;;;4.50;4.50;;;;;8.21;80.60;101516.31;4996070;28;45456;-78
2023/01/10 11:35:32;;;;;;;;;4.00;4.00;;;;;8.11;80.73;101496.97;4995808;28;46055;-77
2023/01/10 11:38:04;;;;;;;;;3.50;3.50;;;;;8.23;79.72;101493.13;4996278;28;45402;-78
2023/01/10 11:40:36;;;;;;;;;6.25;4.00;;;;;8.30;80.65;101492.06;4996679;28;45349;-78
2023/01/10 11:43:26;;;;;;;;;3.75;3.75;;;;;8.28;80.77;101488.53;4996407;28;45563;-78
2023/01/10 11:46:01;;;;;;;;;4.00;4.00;;;;;8.14;81.29;101455.97;4995643;28;46162;-78
2023/01/10 11:48:41;;;;;;;;;5.50;3.75;;;;;8.26;80.79;101493.03;4995823;28;45329;-77
2023/01/10 11:51:20;;;;;;;;;6.00;3.50;;;;;8.24;81.90;101460.16;4996117;28;45295;-78
2023/01/10 11:53:50;;;;;;;;;3.00;3.00;;;;;8.26;81.66;101480.56;4995743;28;45341;-77
2023/01/10 11:56:28;;;;;;;;;4.00;3.00;;;;;8.31;81.20;101470.69;4996003;28;47094;-78
2023/01/10 11:58:56;;;;;;;;;8.00;6.00;;;;;8.28;81.98;101452.03;4996021;28;45294;-79
2023/01/10 12:01:24;;;;;;;;;3.75;3.75;;;;;8.30;81.68;101462.69;4996220;28;45283;-78
2023/01/10 12:03:49;;;;;;;;;6.00;3.00;;;;;8.29;82.01;101453.78;4995831;28;45599;-80
2023/01/10 12:06:16;;;;;;;;;6.50;4.00;;;;;8.20;82.36;101429.09;4995738;28;45342;-78
2023/01/10 12:08:43;;;;;;;;;2.00;2.00;;;;;8.24;82.07;101425.44;4982441;28;45417;-78
2023/01/10 12:11:31;;;;;;;;;5.00;2.75;;;;;8.39;81.52;101433.09;4995108;28;45559;-78
2023/01/10 12:13:59;;;;;;;;;7.00;3.25;;;;;8.45;81.49;101427.59;4995848;28;45322;-78
2023/01/10 12:16:27;;;;;;;;;4.00;3.00;;;;;8.50;81.30;101416.78;4995871;28;46206;-79
2023/01/10 12:18:58;;;;;;;;;3.00;3.00;;;;;8.48;81.81;101402.59;4995799;28;45469;-77
2023/01/10 12:21:38;;;;;;;;;2.75;2.50;;;;;8.50;81.45;101404.31;4995678;28;45469;-79
2023/01/10 12:24:16;;;;;;;;;3.50;2.00;;;;;8.50;82.18;101403.44;4995777;28;45333;-78
2023/01/10 12:26:44;;;;;;;;;3.00;3.00;;;;;8.45;82.45;101392.84;4996147;28;45376;-79
2023/01/10 12:29:25;;;;;;;;;4.00;3.00;;;;;8.50;81.75;101396.28;4995907;28;45219;-78
2023/01/10 12:31:52;;;;;;;;;4.00;3.00;;;;;8.53;83.13;101395.31;5006693;28;45731;-78
2023/01/10 12:34:48;;;;;;;;;6.25;4.00;;;;;8.53;83.79;101388.16;5015391;28;45491;-77
2023/01/10 12:37:31;;;;;;;;;2.00;2.00;;;;;8.46;84.40;101383.03;5008868;28;45439;-78
2023/01/10 12:40:19;;;;;;;;;3.00;3.00;;;;;8.43;83.76;101367.94;5015799;28;45710;-78
2023/01/10 12:46:04;;;;;;;;;2.50;2.50;;;;;8.39;85.48;101379.66;5015260;28;45393;-78
2023/01/10 12:48:46;;;;;;;;;2.00;2.00;;;;;8.32;85.63;101360.25;5015858;28;46420;-77
2023/01/10 12:51:17;;;;;;;;;2.25;2.25;;;;;8.43;85.43;101367.94;5016245;28;45556;-78
2023/01/10 12:53:47;;;;;;;;;4.50;3.00;;;;;8.24;85.73;101332.84;5000387;28;45296;-77
2023/01/10 12:56:15;;;;;;;;;5.25;2.00;;;;;8.17;85.70;101301.84;5018376;28;45375;-79
2023/01/10 12:58:47;;;;;;;;;4.00;4.00;;;;;8.32;85.71;101317.50;5018161;28;46666;-78
2023/01/10 13:01:17;;;;;;;;;5.75;2.25;;;;;8.41;85.33;101327.06;5018371;28;45513;-78
2023/01/10 13:03:44;;;;;;;;;7.25;2.50;;;;;8.51;84.89;101331.22;5016182;28;45285;-80
2023/01/10 13:06:29;;;;;;;;;3.00;2.00;;;;;8.56;85.41;101363.16;5014645;28;45230;-78
2023/01/10 13:08:57;;;;;;;;;3.00;1.75;;;;;8.55;85.52;101332.00;5014836;28;45330;-78
2023/01/10 13:11:29;;;;;;;;;2.50;2.00;;;;;8.64;85.61;101337.09;5014668;28;45472;-78
2023/01/10 13:13:59;;;;;;;;;1.50;1.50;;;;;8.64;85.63;101321.94;5014978;28;45162;-79
2023/01/10 13:16:49;;;;;;;;;5.00;2.00;;;;;8.53;85.57;101301.78;5014506;28;45502;-79
2023/01/10 13:19:18;;;;;;;;;2.75;2.50;;;;;8.71;85.64;101328.84;5014910;28;45346;-78
2023/01/10 13:21:45;;;;;;;;;3.00;1.50;;;;;8.48;85.47;101279.66;5014467;28;45554;-78
2023/01/10 13:24:13;;;;;;;;;2.00;2.00;;;;;8.69;86.07;101320.00;5014842;28;45426;-77
2023/01/10 13:26:56;;;;;;;;;2.50;2.50;;;;;8.65;86.94;101307.66;5014572;28;45297;-79
2023/01/10 13:29:25;;;;;;;;;1.00;1.00;;;;;8.51;86.35;101280.44;5014421;28;45202;-79
2023/01/10 13:31:56;;;;;;;;;6.00;4.00;;;;;8.78;86.45;101302.81;5014510;28;45178;-78
2023/01/10 13:34:24;;;;;;;;;3.00;3.00;;;;;8.81;86.87;101299.19;5014738;28;45452;-78
2023/01/10 13:36:59;;;;;;;;;3.50;2.00;;;;;8.85;86.94;101299.03;5013877;28;45411;-79
2023/01/10 13:39:36;;;;;;;;;3.25;2.00;;;;;8.74;86.93;101271.75;4996342;28;47030;-79
2023/01/10 13:45:01;;;;;;;;;2.00;2.00;;;;;8.94;86.88;101289.84;5014382;28;45238;-77
2023/01/10 13:47:38;;;;;;;;;2.00;2.00;;;;;9.00;86.97;101303.06;5014214;28;45458;-76
2023/01/10 13:50:32;;;;;;;;;2.00;2.00;;;;;9.06;86.36;101298.41;5006705;28;47281;-78
2023/01/10 13:53:04;;;;;;;;;2.25;2.00;;;;;9.02;87.46;101293.19;5003158;28;45629;-79
2023/01/10 13:55:38;;;;;;;;;2.00;2.00;;;;;9.04;87.56;101291.34;5014268;28;45348;-77
2023/01/10 14:04:33;;;;;;;;;1.25;1.25;;;;;9.09;88.09;101262.66;5014368;28;45332;-78
2023/01/10 14:07:02;;;;;;;;;1.50;1.00;;;;;9.10;88.18;101270.63;5013653;28;45335;-78
2023/01/10 14:09:44;;;;;;;;;3.00;1.75;;;;;8.94;88.55;101233.72;5014194;28;45557;-77
2023/01/10 14:12:20;;;;;;;;;1.00;1.00;;;;;9.25;87.85;101269.28;5014442;28;46073;-78
2023/01/10 14:14:57;;;;;;;;;2.00;2.00;;;;;9.30;87.71;101266.44;5014549;28;45377;-77
2023/01/10 14:17:25;;;;;;;;;1.00;1.00;;;;;9.28;88.59;101260.25;5013209;28;45364;-77
2023/01/10 14:20:05;;;;;;;;;0.00;0.00;;;;;9.30;89.06;101259.28;5013991;28;45171;-78
2023/01/10 14:22:35;;;;;;;;;3.00;1.00;;;;;9.25;89.00;101249.69;5012437;28;45908;-78
2023/01/10 14:25:05;;;;;;;;;1.00;1.00;;;;;9.35;89.17;101254.69;4996204;28;45407;-78
2023/01/10 14:27:46;;;;;;;;;1.50;1.50;;;;;9.37;88.81;101246.56;4996242;28;45361;-78
2023/01/10 14:30:24;;;;;;;;;3.00;2.00;;;;;9.42;88.88;101264.25;5014005;28;45333;-79
2023/01/10 14:32:52;;;;;;;;;1.00;0.50;;;;;9.40;88.84;101255.41;4995919;28;47532;-78
2023/01/10 14:35:21;;;;;;;;;0.50;0.50;;;;;9.40;88.82;101243.81;5011633;28;45262;-79
2023/01/10 14:37:53;;;;;;;;;1.00;1.00;;;;;9.58;88.61;101269.09;4997327;28;45488;-78
2023/01/10 14:40:39;;;;;;;;;1.00;1.00;;;;;9.61;89.10;101277.03;4997679;28;45345;-79
2023/01/10 14:43:10;;;;;;;;;1.75;1.75;;;;;9.63;88.76;101270.69;4997835;28;45567;-78
2023/01/10 14:45:47;;;;;;;;;2.00;1.00;;;;;9.33;88.79;101216.38;4997266;28;45233;-79
2023/01/10 14:48:33;;;;;;;;;1.50;1.00;;;;;9.63;89.26;101254.63;4997685;28;45455;-78
2023/01/10 14:51:10;;;;;;;;;3.00;1.50;;;;;9.72;88.84;101269.50;4997472;28;45322;-78
2023/01/10 14:53:36;;;;;;;;;2.00;2.00;;;;;9.72;89.14;101270.38;4997612;28;46321;-77
2023/01/10 14:56:01;;;;;;;;;1.00;1.00;;;;;9.74;89.10;101273.88;5000432;28;45337;-77
2023/01/10 14:58:27;;;;;;;;;2.00;2.00;;;;;9.60;89.30;101237.81;5000809;28;45446;-79
2023/01/10 15:00:55;;;;;;;;;1.00;1.00;;;;;9.59;89.69;101244.97;5001023;28;45515;-77
2023/01/10 15:03:24;;;;;;;;;1.00;1.00;;;;;9.67;89.37;101256.28;4998479;28;46409;-78
2023/01/10 15:05:52;;;;;;;;;1.00;1.00;;;;;9.79;89.41;101271.91;4997695;28;45320;-77
2023/01/10 15:08:29;;;;;;;;;2.00;2.00;;;;;9.76;89.57;101249.72;4996509;28;45320;-78
2023/01/10 15:11:00;;;;;;;;;1.25;1.25;;;;;9.87;89.34;101259.13;4979043;28;46428;-79
2023/01/10 15:13:27;;;;;;;;;1.00;1.00;;;;;9.87;89.94;101253.78;4996649;28;46006;-79
2023/01/10 15:15:53;;;;;;;;;1.00;1.00;;;;;9.67;90.33;101218.81;4996879;28;45379;-78
2023/01/10 15:18:27;;;;;;;;;0.50;0.50;;;;;9.92;89.91;101250.94;4996688;28;45429;-76
2023/01/10 15:20:54;;;;;;;;;1.25;1.25;;;;;9.92;90.30;101244.72;4996522;28;45519;-79
2023/01/10 15:23:19;;;;;;;;;4.00;1.00;;;;;9.82;90.46;101220.94;4996563;28;46188;-78
2023/01/10 15:25:55;;;;;;;;;1.00;1.00;;;;;9.81;90.68;101224.53;4996792;28;45317;-78
2023/01/10 15:28:21;;;;;;;;;1.00;0.00;;;;;9.89;90.75;101237.66;4997736;28;45283;-77
2023/01/10 15:30:47;;;;;;;;;1.75;1.00;;;;;9.84;90.59;101224.44;4998195;28;45558;-77
2023/01/10 15:33:18;;;;;;;;;1.00;1.00;;;;;9.82;90.91;101212.03;5016374;28;46139;-78
2023/01/10 15:35:44;;;;;;;;;2.00;2.00;;;;;9.99;91.24;101246.25;5009967;28;45329;-80
2023/01/10 15:38:16;;;;;;;;;2.00;2.00;;;;;9.87;91.42;101224.31;5015886;28;45335;-78
2023/01/10 15:40:42;;;;;;;;;1.50;1.50;;;;;9.86;91.80;101227.94;5016145;28;45494;-78
2023/01/10 15:43:17;;;;;;;;;2.00;2.00;;;;;9.99;91.61;101244.44;5016253;28;46288;-78
2023/01/10 15:45:46;;;;;;;;;2.00;1.50;;;;;10.03;91.16;101238.06;5012819;28;45439;-78
2023/01/10 15:48:29;;;;;;;;;2.00;1.00;;;;;10.01;91.45;101239.03;5016117;28;45538;-77
2023/01/10 15:51:02;;;;;;;;;1.00;1.00;;;;;10.07;91.25;101233.44;5015787;28;45340;-79
2023/01/10 15:54:04;;;;;;;;;1.00;1.00;;;;;10.09;91.54;101239.63;5015680;28;46162;-77
2023/01/10 15:56:46;;;;;;;;;1.00;0.50;;;;;10.11;91.41;101229.75;5015960;28;45482;-78
2023/01/10 15:59:32;;;;;;;;;1.50;1.50;;;;;10.17;91.50;101230.41;5016215;28;45420;-78
2023/01/10 16:02:00;;;;;;;;;2.00;1.00;;;;;10.20;90.85;101219.59;5015681;28;45325;-78
2023/01/10 16:04:26;;;;;;;;;3.00;1.50;;;;;10.12;90.67;101210.06;5015834;28;45522;-79
2023/01/10 16:07:03;;;;;;;;;1.00;1.00;;;;;10.21;90.94;101213.28;5015342;28;45725;-77
2023/01/10 16:09:30;;;;;;;;;1.50;1.50;;;;;10.09;90.84;101184.25;5015956;28;45376;-77
2023/01/10 16:14:39;;;;;;;;;1.75;1.75;;;;;10.19;91.50;101204.47;5015776;28;45467;-78
2023/01/10 16:17:04;;;;;;;;;2.00;1.75;;;;;10.35;91.21;101207.44;5015689;28;45298;-77
2023/01/10 16:19:30;;;;;;;;;3.00;2.00;;;;;10.38;91.32;101223.38;5015405;28;45305;-79
2023/01/10 16:21:58;;;;;;;;;1.00;1.00;;;;;10.38;91.00;101209.13;5015386;28;45412;-78
2023/01/10 16:24:29;;;;;;;;;2.00;2.00;;;;;10.37;91.14;101197.53;5015412;28;45384;-78
2023/01/10 16:26:57;;;;;;;;;2.00;2.00;;;;;10.35;91.66;101195.84;5014314;28;46175;-78
2023/01/10 16:29:23;;;;;;;;;3.25;2.00;;;;;10.32;91.49;101190.56;5015679;28;45351;-77
2023/01/10 16:31:50;;;;;;;;;3.00;3.00;;;;;10.49;91.65;101210.47;5015531;28;45234;-78
2023/01/10 16:34:16;;;;;;;;;3.50;3.00;;;;;10.14;92.15;101147.44;5015449;28;46082;-77
2023/01/10 16:36:42;;;;;;;;;3.00;3.00;;;;;10.54;91.92;101199.56;5015090;28;45362;-79
2023/01/10 16:39:16;;;;;;;;;3.00;2.00;;;;;10.51;91.61;101203.25;4997831;28;45410;-78
2023/01/10 16:44:27;;;;;;;;;4.50;2.75;;;;;10.58;91.59;101193.16;5011897;28;45427;-78
2023/01/10 16:46:53;;;;;;;;;2.00;2.00;;;;;10.46;91.38;101172.19;5015633;28;45549;-78
2023/01/10 16:49:19;;;;;;;;;1.00;1.00;;;;;10.61;91.98;101201.97;5015997;28;45236;-78
2023/01/10 16:51:44;;;;;;;;;0.00;0.00;;;;;10.50;91.58;101169.31;5017617;28;45898;-79
2023/01/10 16:54:21;;;;;;;;;1.25;1.25;;;;;10.63;91.33;101171.53;5017057;28;45389;-78
2023/01/10 16:56:47;;;;;;;;;2.00;2.00;;;;;10.66;91.12;101169.59;5016073;28;45419;-78
2023/01/10 16:59:15;;;;;;;;;1.25;1.25;;;;;10.71;91.79;101156.00;4999350;28;45367;-79
2023/01/10 17:01:48;;;;;;;;;2.75;2.75;;;;;10.75;90.72;101154.94;5014904;28;45514;-78
2023/01/10 17:04:19;;;;;;;;;2.75;2.75;;;;;10.61;91.14;101126.88;5014962;28;46148;-79
2023/01/10 17:06:44;;;;;;;;;4.75;4.75;;;;;10.67;91.03;101144.53;4996901;28;45340;-78
2023/01/10 17:09:23;;;;;;;;;7.75;5.50;;;;;10.65;91.69;101149.06;5014731;28;45487;-78
2023/01/10 17:12:00;;;;;;;;;6.25;4.75;;;;;10.79;91.17;101167.31;5014755;28;45510;-79
2023/01/10 17:14:27;;;;;;;;;2.00;2.00;;;;;10.82;90.50;101176.09;5014729;28;45319;-77
2023/01/10 17:16:54;;;;;;;;;6.00;5.75;;;;;10.79;91.25;101173.53;5014911;28;45522;-77
2023/01/10 17:19:19;;;;;;;;;3.75;3.75;;;;;10.77;91.17;101180.78;5013450;28;45332;-78
2023/01/10 17:21:44;;;;;;;;;5.00;4.00;;;;;10.74;90.83;101164.78;5014477;28;45429;-79
2023/01/10 17:24:10;;;;;;;;;5.00;5.00;;;;;10.83;91.31;101175.16;5014352;28;47000;-78
2023/01/10 17:26:36;;;;;;;;;4.00;4.00;;;;;10.73;91.45;101159.47;5014905;28;45564;-78
2023/01/10 17:29:01;;;;;;;;;6.75;4.00;;;;;10.86;91.17;101179.53;4996887;28;45372;-77
2023/01/10 17:31:26;;;;;;;;;5.00;5.00;;;;;10.85;91.38;101178.66;5014480;28;45607;-78
2023/01/10 17:33:52;;;;;;;;;4.00;4.00;;;;;10.77;91.65;101153.06;5014623;28;45320;-78
2023/01/10 17:36:17;;;;;;;;;3.00;3.00;;;;;10.92;91.29;101165.88;5014466;28;45412;-79
2023/01/10 17:38:42;;;;;;;;;4.00;4.00;;;;;10.83;91.44;101139.41;5014536;28;45677;-77